sensor_id;sensor_type;location;lat;lon;timestamp;P1;durP1;ratioP1;P2;durP2;ratioP2
1258;SDS011;619;51.472;6.628;2023-02-03T00:01:54;12.93;;;9.10;;
1258;SDS011;619;51.472;6.628;2023-02-03T00:04:20;12.17;;;10.97;;
1258;SDS011;619;51.472;6.628;2023-02-03T00:06:46;11.60;;;10.40;;
1258;SDS011;619;51.472;6.628;2023-02-03T00:09:13;12.53;;;10.13;;
1258;SDS011;619;51.472;6.628;2023-02-03T00:11:39;10.53;;;9.30;;
1258;SDS011;619;51.472;6.628;2023-02-03T00:14:05;13.23;;;9.67;;
1258;SDS011;619;51.472;6.628;2023-02-03T00:16:32;11.57;;;10.20;;
1258;SDS011;619;51.472;6.628;2023-02-03T00:18:58;10.80;;;9.63;;
1258;SDS011;619;51.472;6.628;2023-02-03T00:21:24;11.30;;;9.80;;
1258;SDS011;619;51.472;6.628;2023-02-03T00:23:52;10.80;;;9.70;;
1258;SDS011;619;51.472;6.628;2023-02-03T00:26:18;11.90;;;10.40;;
1258;SDS011;619;51.472;6.628;2023-02-03T00:28:44;13.63;;;9.60;;
1258;SDS011;619;51.472;6.628;2023-02-03T00:31:18;13.33;;;10.30;;
1258;SDS011;619;51.472;6.628;2023-02-03T00:33:44;11.97;;;10.73;;
1258;SDS011;619;51.472;6.628;2023-02-03T00:36:13;12.67;;;10.63;;
1258;SDS011;619;51.472;6.628;2023-02-03T00:38:39;14.57;;;10.70;;
1258;SDS011;619;51.472;6.628;2023-02-03T00:41:05;18.00;;;10.97;;
1258;SDS011;619;51.472;6.628;2023-02-03T00:43:31;12.87;;;11.37;;
1258;SDS011;619;51.472;6.628;2023-02-03T00:45:57;16.70;;;11.87;;
1258;SDS011;619;51.472;6.628;2023-02-03T00:48:25;13.47;;;11.27;;
1258;SDS011;619;51.472;6.628;2023-02-03T00:50:54;13.40;;;12.10;;
1258;SDS011;619;51.472;6.628;2023-02-03T00:53:20;11.83;;;10.80;;
1258;SDS011;619;51.472;6.628;2023-02-03T00:55:46;13.27;;;11.87;;
1258;SDS011;619;51.472;6.628;2023-02-03T00:58:12;12.20;;;10.77;;
1258;SDS011;619;51.472;6.628;2023-02-03T01:00:38;16.30;;;10.60;;
1258;SDS011;619;51.472;6.628;2023-02-03T01:03:04;15.10;;;11.60;;
1258;SDS011;619;51.472;6.628;2023-02-03T01:05:30;13.03;;;11.73;;
1258;SDS011;619;51.472;6.628;2023-02-03T01:07:56;11.40;;;10.50;;
1258;SDS011;619;51.472;6.628;2023-02-03T01:10:24;13.00;;;11.73;;
1258;SDS011;619;51.472;6.628;2023-02-03T01:12:50;12.70;;;11.37;;
1258;SDS011;619;51.472;6.628;2023-02-03T01:15:16;14.40;;;12.00;;
1258;SDS011;619;51.472;6.628;2023-02-03T01:17:42;15.03;;;11.17;;
1258;SDS011;619;51.472;6.628;2023-02-03T01:20:08;11.53;;;10.10;;
1258;SDS011;619;51.472;6.628;2023-02-03T01:22:37;11.53;;;9.80;;
1258;SDS011;619;51.472;6.628;2023-02-03T01:25:04;16.50;;;10.70;;
1258;SDS011;619;51.472;6.628;2023-02-03T01:27:32;13.60;;;11.00;;
1258;SDS011;619;51.472;6.628;2023-02-03T01:30:00;10.50;;;9.37;;
1258;SDS011;619;51.472;6.628;2023-02-03T01:32:26;10.60;;;8.07;;
1258;SDS011;619;51.472;6.628;2023-02-03T01:34:52;11.53;;;10.27;;
1258;SDS011;619;51.472;6.628;2023-02-03T01:37:21;13.50;;;9.87;;
1258;SDS011;619;51.472;6.628;2023-02-03T01:39:49;16.60;;;10.70;;
1258;SDS011;619;51.472;6.628;2023-02-03T01:42:15;11.00;;;9.30;;
1258;SDS011;619;51.472;6.628;2023-02-03T01:47:17;10.53;;;8.20;;
1258;SDS011;619;51.472;6.628;2023-02-03T01:49:48;9.90;;;8.90;;
1258;SDS011;619;51.472;6.628;2023-02-03T01:52:19;13.43;;;10.10;;
1258;SDS011;619;51.472;6.628;2023-02-03T01:54:45;11.40;;;9.30;;
1258;SDS011;619;51.472;6.628;2023-02-03T01:57:15;14.40;;;8.50;;
1258;SDS011;619;51.472;6.628;2023-02-03T01:59:41;15.10;;;8.80;;
1258;SDS011;619;51.472;6.628;2023-02-03T02:02:08;13.07;;;9.60;;
1258;SDS011;619;51.472;6.628;2023-02-03T02:05:10;9.93;;;8.20;;
1258;SDS011;619;51.472;6.628;2023-02-03T02:07:26;10.50;;;9.50;;
1258;SDS011;619;51.472;6.628;2023-02-03T02:09:53;14.47;;;8.80;;
1258;SDS011;619;51.472;6.628;2023-02-03T02:12:22;11.67;;;8.83;;
1258;SDS011;619;51.472;6.628;2023-02-03T02:14:48;11.40;;;7.67;;
1258;SDS011;619;51.472;6.628;2023-02-03T02:35:16;9.57;;;7.70;;
1258;SDS011;619;51.472;6.628;2023-02-03T02:40:18;11.17;;;7.23;;
1258;SDS011;619;51.472;6.628;2023-02-03T02:43:32;10.53;;;6.90;;
1258;SDS011;619;51.472;6.628;2023-02-03T02:45:51;7.53;;;6.50;;
1258;SDS011;619;51.472;6.628;2023-02-03T02:51:02;11.37;;;6.30;;
1258;SDS011;619;51.472;6.628;2023-02-03T02:53:31;8.97;;;5.70;;
1258;SDS011;619;51.472;6.628;2023-02-03T02:55:58;7.93;;;5.33;;
1258;SDS011;619;51.472;6.628;2023-02-03T02:58:25;8.80;;;6.33;;
1258;SDS011;619;51.472;6.628;2023-02-03T03:00:52;10.03;;;5.47;;
1258;SDS011;619;51.472;6.628;2023-02-03T03:03:20;9.00;;;5.87;;
1258;SDS011;619;51.472;6.628;2023-02-03T03:05:50;5.97;;;4.73;;
1258;SDS011;619;51.472;6.628;2023-02-03T03:08:21;8.80;;;4.67;;
1258;SDS011;619;51.472;6.628;2023-02-03T03:10:48;8.70;;;5.33;;
1258;SDS011;619;51.472;6.628;2023-02-03T03:13:16;9.70;;;5.80;;
1258;SDS011;619;51.472;6.628;2023-02-03T03:15:44;6.27;;;5.67;;
1258;SDS011;619;51.472;6.628;2023-02-03T03:20:39;7.00;;;5.10;;
1258;SDS011;619;51.472;6.628;2023-02-03T03:23:10;6.20;;;5.07;;
1258;SDS011;619;51.472;6.628;2023-02-03T03:25:48;7.87;;;4.40;;
1258;SDS011;619;51.472;6.628;2023-02-03T03:28:22;8.23;;;5.43;;
1258;SDS011;619;51.472;6.628;2023-02-03T03:30:50;8.20;;;4.03;;
1258;SDS011;619;51.472;6.628;2023-02-03T03:33:17;8.83;;;5.03;;
1258;SDS011;619;51.472;6.628;2023-02-03T03:38:18;5.40;;;3.93;;
1258;SDS011;619;51.472;6.628;2023-02-03T03:40:53;7.77;;;3.97;;
1258;SDS011;619;51.472;6.628;2023-02-03T03:43:23;8.73;;;4.30;;
1258;SDS011;619;51.472;6.628;2023-02-03T03:46:26;5.40;;;4.63;;
1258;SDS011;619;51.472;6.628;2023-02-03T03:53:46;6.83;;;4.00;;
1258;SDS011;619;51.472;6.628;2023-02-03T03:56:20;7.53;;;4.40;;
1258;SDS011;619;51.472;6.628;2023-02-03T03:58:48;12.93;;;4.53;;
1258;SDS011;619;51.472;6.628;2023-02-03T04:01:15;8.33;;;4.57;;
1258;SDS011;619;51.472;6.628;2023-02-03T04:03:45;9.33;;;4.70;;
1258;SDS011;619;51.472;6.628;2023-02-03T04:06:12;10.33;;;4.17;;
1258;SDS011;619;51.472;6.628;2023-02-03T04:08:39;6.70;;;3.47;;
1258;SDS011;619;51.472;6.628;2023-02-03T04:11:05;6.70;;;4.10;;
1258;SDS011;619;51.472;6.628;2023-02-03T04:13:33;9.73;;;4.50;;
1258;SDS011;619;51.472;6.628;2023-02-03T04:15:59;8.30;;;4.27;;
1258;SDS011;619;51.472;6.628;2023-02-03T04:18:25;10.83;;;4.43;;
1258;SDS011;619;51.472;6.628;2023-02-03T04:20:51;7.00;;;4.50;;
1258;SDS011;619;51.472;6.628;2023-02-03T04:23:22;6.97;;;4.37;;
1258;SDS011;619;51.472;6.628;2023-02-03T04:25:48;10.90;;;4.83;;
1258;SDS011;619;51.472;6.628;2023-02-03T04:28:16;8.57;;;4.50;;
1258;SDS011;619;51.472;6.628;2023-02-03T04:30:42;8.73;;;4.20;;
1258;SDS011;619;51.472;6.628;2023-02-03T04:33:08;8.07;;;4.37;;
1258;SDS011;619;51.472;6.628;2023-02-03T04:35:36;8.50;;;3.53;;
1258;SDS011;619;51.472;6.628;2023-02-03T04:38:02;6.60;;;4.00;;
1258;SDS011;619;51.472;6.628;2023-02-03T04:40:31;13.20;;;4.80;;
1258;SDS011;619;51.472;6.628;2023-02-03T04:42:56;5.40;;;4.33;;
1258;SDS011;619;51.472;6.628;2023-02-03T04:45:22;6.97;;;4.20;;
1258;SDS011;619;51.472;6.628;2023-02-03T04:47:51;7.30;;;4.30;;
1258;SDS011;619;51.472;6.628;2023-02-03T04:50:18;6.53;;;4.53;;
1258;SDS011;619;51.472;6.628;2023-02-03T04:52:44;7.80;;;4.33;;
1258;SDS011;619;51.472;6.628;2023-02-03T04:55:10;5.83;;;4.30;;
1258;SDS011;619;51.472;6.628;2023-02-03T04:57:38;9.30;;;3.73;;
1258;SDS011;619;51.472;6.628;2023-02-03T05:00:04;7.63;;;4.13;;
1258;SDS011;619;51.472;6.628;2023-02-03T05:02:30;9.30;;;4.03;;
1258;SDS011;619;51.472;6.628;2023-02-03T05:04:56;7.20;;;3.60;;
1258;SDS011;619;51.472;6.628;2023-02-03T05:07:22;4.30;;;3.23;;
1258;SDS011;619;51.472;6.628;2023-02-03T05:09:48;9.33;;;3.80;;
1258;SDS011;619;51.472;6.628;2023-02-03T05:12:14;5.63;;;3.63;;
1258;SDS011;619;51.472;6.628;2023-02-03T05:14:43;5.87;;;3.83;;
1258;SDS011;619;51.472;6.628;2023-02-03T05:17:11;9.37;;;3.67;;
1258;SDS011;619;51.472;6.628;2023-02-03T05:19:37;5.10;;;3.10;;
1258;SDS011;619;51.472;6.628;2023-02-03T05:22:03;4.83;;;3.30;;
1258;SDS011;619;51.472;6.628;2023-02-03T05:24:29;6.07;;;3.50;;
1258;SDS011;619;51.472;6.628;2023-02-03T05:26:57;3.10;;;2.33;;
1258;SDS011;619;51.472;6.628;2023-02-03T05:29:23;7.60;;;2.93;;
1258;SDS011;619;51.472;6.628;2023-02-03T05:31:51;3.40;;;3.10;;
1258;SDS011;619;51.472;6.628;2023-02-03T05:34:20;7.30;;;3.40;;
1258;SDS011;619;51.472;6.628;2023-02-03T05:36:48;4.30;;;2.47;;
1258;SDS011;619;51.472;6.628;2023-02-03T05:39:16;5.27;;;2.80;;
1258;SDS011;619;51.472;6.628;2023-02-03T05:41:45;4.50;;;2.83;;
1258;SDS011;619;51.472;6.628;2023-02-03T05:44:23;5.03;;;2.60;;
1258;SDS011;619;51.472;6.628;2023-02-03T05:46:54;5.30;;;2.63;;
1258;SDS011;619;51.472;6.628;2023-02-03T05:49:20;6.13;;;2.90;;
1258;SDS011;619;51.472;6.628;2023-02-03T05:51:47;6.70;;;2.40;;
1258;SDS011;619;51.472;6.628;2023-02-03T05:54:13;4.57;;;2.70;;
1258;SDS011;619;51.472;6.628;2023-02-03T05:56:42;7.43;;;2.73;;
1258;SDS011;619;51.472;6.628;2023-02-03T05:59:10;5.03;;;2.97;;
1258;SDS011;619;51.472;6.628;2023-02-03T06:01:36;5.87;;;2.63;;
1258;SDS011;619;51.472;6.628;2023-02-03T06:04:02;6.83;;;2.93;;
1258;SDS011;619;51.472;6.628;2023-02-03T06:06:31;7.07;;;2.93;;
1258;SDS011;619;51.472;6.628;2023-02-03T06:09:05;4.50;;;2.63;;
1258;SDS011;619;51.472;6.628;2023-02-03T06:11:31;7.53;;;2.80;;
1258;SDS011;619;51.472;6.628;2023-02-03T06:14:00;5.00;;;2.10;;
1258;SDS011;619;51.472;6.628;2023-02-03T06:16:27;7.23;;;2.80;;
1258;SDS011;619;51.472;6.628;2023-02-03T06:18:53;6.40;;;2.80;;
1258;SDS011;619;51.472;6.628;2023-02-03T06:21:22;15.53;;;2.87;;
1258;SDS011;619;51.472;6.628;2023-02-03T06:23:48;9.00;;;3.37;;
1258;SDS011;619;51.472;6.628;2023-02-03T06:26:14;6.27;;;3.00;;
1258;SDS011;619;51.472;6.628;2023-02-03T06:28:40;5.37;;;3.10;;
1258;SDS011;619;51.472;6.628;2023-02-03T06:31:06;7.40;;;2.40;;
1258;SDS011;619;51.472;6.628;2023-02-03T06:33:32;9.33;;;2.53;;
1258;SDS011;619;51.472;6.628;2023-02-03T06:35:58;4.83;;;2.00;;
1258;SDS011;619;51.472;6.628;2023-02-03T06:38:24;5.63;;;3.10;;
1258;SDS011;619;51.472;6.628;2023-02-03T06:40:53;5.53;;;2.67;;
1258;SDS011;619;51.472;6.628;2023-02-03T06:43:19;2.90;;;1.80;;
1258;SDS011;619;51.472;6.628;2023-02-03T06:45:47;7.53;;;2.80;;
1258;SDS011;619;51.472;6.628;2023-02-03T06:48:13;6.23;;;2.73;;
1258;SDS011;619;51.472;6.628;2023-02-03T06:50:41;4.67;;;2.73;;
1258;SDS011;619;51.472;6.628;2023-02-03T06:53:08;4.20;;;2.40;;
1258;SDS011;619;51.472;6.628;2023-02-03T06:55:34;4.77;;;2.63;;
1258;SDS011;619;51.472;6.628;2023-02-03T06:57:59;2.70;;;1.97;;
1258;SDS011;619;51.472;6.628;2023-02-03T07:00:25;4.07;;;2.13;;
1258;SDS011;619;51.472;6.628;2023-02-03T07:02:52;6.23;;;3.20;;
1258;SDS011;619;51.472;6.628;2023-02-03T07:05:21;4.33;;;2.10;;
1258;SDS011;619;51.472;6.628;2023-02-03T07:07:48;3.97;;;2.73;;
1258;SDS011;619;51.472;6.628;2023-02-03T07:10:14;7.53;;;3.50;;
1258;SDS011;619;51.472;6.628;2023-02-03T07:12:40;4.50;;;2.47;;
1258;SDS011;619;51.472;6.628;2023-02-03T07:15:09;7.90;;;2.50;;
1258;SDS011;619;51.472;6.628;2023-02-03T07:17:36;9.13;;;2.60;;
1258;SDS011;619;51.472;6.628;2023-02-03T07:20:02;7.80;;;3.60;;
1258;SDS011;619;51.472;6.628;2023-02-03T07:22:28;5.37;;;2.70;;
1258;SDS011;619;51.472;6.628;2023-02-03T07:24:54;5.63;;;3.03;;
1258;SDS011;619;51.472;6.628;2023-02-03T07:27:22;4.53;;;2.30;;
1258;SDS011;619;51.472;6.628;2023-02-03T07:29:48;4.70;;;2.67;;
1258;SDS011;619;51.472;6.628;2023-02-03T07:32:19;6.93;;;2.80;;
1258;SDS011;619;51.472;6.628;2023-02-03T07:34:47;5.23;;;2.20;;
1258;SDS011;619;51.472;6.628;2023-02-03T07:37:13;6.27;;;2.30;;
1258;SDS011;619;51.472;6.628;2023-02-03T07:39:39;5.20;;;2.20;;
1258;SDS011;619;51.472;6.628;2023-02-03T07:42:06;2.70;;;1.83;;
1258;SDS011;619;51.472;6.628;2023-02-03T07:44:32;5.70;;;2.30;;
1258;SDS011;619;51.472;6.628;2023-02-03T07:47:02;5.93;;;2.83;;
1258;SDS011;619;51.472;6.628;2023-02-03T07:49:31;6.77;;;2.73;;
1258;SDS011;619;51.472;6.628;2023-02-03T07:51:57;9.50;;;2.50;;
1258;SDS011;619;51.472;6.628;2023-02-03T07:54:23;3.20;;;2.10;;
1258;SDS011;619;51.472;6.628;2023-02-03T07:56:49;2.80;;;1.87;;
1258;SDS011;619;51.472;6.628;2023-02-03T07:59:18;4.93;;;2.20;;
1258;SDS011;619;51.472;6.628;2023-02-03T08:01:44;9.87;;;2.80;;
1258;SDS011;619;51.472;6.628;2023-02-03T08:04:10;3.57;;;2.50;;
1258;SDS011;619;51.472;6.628;2023-02-03T08:06:42;6.00;;;2.87;;
1258;SDS011;619;51.472;6.628;2023-02-03T08:09:11;5.70;;;2.10;;
1258;SDS011;619;51.472;6.628;2023-02-03T08:11:37;3.30;;;2.57;;
1258;SDS011;619;51.472;6.628;2023-02-03T08:14:03;4.47;;;2.47;;
1258;SDS011;619;51.472;6.628;2023-02-03T08:16:29;5.23;;;2.40;;
1258;SDS011;619;51.472;6.628;2023-02-03T08:18:55;4.50;;;2.40;;
1258;SDS011;619;51.472;6.628;2023-02-03T08:21:21;5.47;;;2.27;;
1258;SDS011;619;51.472;6.628;2023-02-03T08:23:47;4.57;;;2.27;;
1258;SDS011;619;51.472;6.628;2023-02-03T08:26:14;3.87;;;2.23;;
1258;SDS011;619;51.472;6.628;2023-02-03T08:28:42;2.90;;;1.90;;
1258;SDS011;619;51.472;6.628;2023-02-03T08:31:10;4.97;;;2.47;;
1258;SDS011;619;51.472;6.628;2023-02-03T08:33:38;3.47;;;2.00;;
1258;SDS011;619;51.472;6.628;2023-02-03T08:36:07;3.53;;;2.47;;
1258;SDS011;619;51.472;6.628;2023-02-03T08:38:35;2.73;;;1.97;;
1258;SDS011;619;51.472;6.628;2023-02-03T08:41:06;6.97;;;2.50;;
1258;SDS011;619;51.472;6.628;2023-02-03T08:43:32;7.37;;;2.80;;
1258;SDS011;619;51.472;6.628;2023-02-03T08:46:01;5.77;;;3.07;;
1258;SDS011;619;51.472;6.628;2023-02-03T08:48:27;6.63;;;2.57;;
1258;SDS011;619;51.472;6.628;2023-02-03T08:50:53;4.93;;;2.93;;
1258;SDS011;619;51.472;6.628;2023-02-03T08:53:19;4.50;;;3.10;;
1258;SDS011;619;51.472;6.628;2023-02-03T08:55:47;3.30;;;2.30;;
1258;SDS011;619;51.472;6.628;2023-02-03T08:58:13;4.60;;;2.23;;
1258;SDS011;619;51.472;6.628;2023-02-03T09:00:40;6.50;;;2.90;;
1258;SDS011;619;51.472;6.628;2023-02-03T09:03:08;2.47;;;2.03;;
1258;SDS011;619;51.472;6.628;2023-02-03T09:05:35;4.07;;;2.50;;
1258;SDS011;619;51.472;6.628;2023-02-03T09:08:01;4.77;;;2.60;;
1258;SDS011;619;51.472;6.628;2023-02-03T09:10:27;4.60;;;3.27;;
1258;SDS011;619;51.472;6.628;2023-02-03T09:12:53;6.50;;;2.17;;
1258;SDS011;619;51.472;6.628;2023-02-03T09:15:19;3.30;;;2.40;;
1258;SDS011;619;51.472;6.628;2023-02-03T09:17:45;5.90;;;2.63;;
1258;SDS011;619;51.472;6.628;2023-02-03T09:20:11;9.73;;;3.60;;
1258;SDS011;619;51.472;6.628;2023-02-03T09:22:40;5.70;;;2.50;;
1258;SDS011;619;51.472;6.628;2023-02-03T09:25:07;5.13;;;1.87;;
1258;SDS011;619;51.472;6.628;2023-02-03T09:27:33;4.23;;;2.10;;
1258;SDS011;619;51.472;6.628;2023-02-03T09:29:58;5.77;;;3.13;;
1258;SDS011;619;51.472;6.628;2023-02-03T09:32:24;7.33;;;2.53;;
1258;SDS011;619;51.472;6.628;2023-02-03T09:34:52;8.10;;;3.17;;
1258;SDS011;619;51.472;6.628;2023-02-03T09:37:22;4.43;;;2.20;;
1258;SDS011;619;51.472;6.628;2023-02-03T09:39:47;5.53;;;2.40;;
1258;SDS011;619;51.472;6.628;2023-02-03T09:45:25;5.40;;;2.13;;
1258;SDS011;619;51.472;6.628;2023-02-03T09:47:52;5.83;;;2.90;;
1258;SDS011;619;51.472;6.628;2023-02-03T09:50:29;4.00;;;2.40;;
1258;SDS011;619;51.472;6.628;2023-02-03T09:53:00;6.27;;;2.70;;
1258;SDS011;619;51.472;6.628;2023-02-03T09:55:32;6.43;;;2.53;;
1258;SDS011;619;51.472;6.628;2023-02-03T09:58:09;5.67;;;2.30;;
1258;SDS011;619;51.472;6.628;2023-02-03T10:00:46;4.00;;;2.40;;
1258;SDS011;619;51.472;6.628;2023-02-03T10:03:35;5.83;;;2.70;;
1258;SDS011;619;51.472;6.628;2023-02-03T10:06:13;4.40;;;2.50;;
1258;SDS011;619;51.472;6.628;2023-02-03T10:11:21;6.60;;;2.50;;
1258;SDS011;619;51.472;6.628;2023-02-03T10:18:57;6.63;;;2.60;;
1258;SDS011;619;51.472;6.628;2023-02-03T10:23:50;3.03;;;2.30;;
1258;SDS011;619;51.472;6.628;2023-02-03T10:26:20;2.40;;;1.80;;
1258;SDS011;619;51.472;6.628;2023-02-03T10:28:50;3.40;;;2.03;;
1258;SDS011;619;51.472;6.628;2023-02-03T10:31:20;3.60;;;2.60;;
1258;SDS011;619;51.472;6.628;2023-02-03T10:34:11;7.83;;;3.13;;
1258;SDS011;619;51.472;6.628;2023-02-03T10:41:46;4.50;;;3.07;;
1258;SDS011;619;51.472;6.628;2023-02-03T10:44:15;5.10;;;2.10;;
1258;SDS011;619;51.472;6.628;2023-02-03T10:46:41;7.17;;;2.90;;
1258;SDS011;619;51.472;6.628;2023-02-03T10:49:13;9.10;;;3.33;;
1258;SDS011;619;51.472;6.628;2023-02-03T10:51:47;5.70;;;2.70;;
1258;SDS011;619;51.472;6.628;2023-02-03T10:57:00;7.83;;;2.50;;
1258;SDS011;619;51.472;6.628;2023-02-03T10:59:38;6.90;;;3.07;;
1258;SDS011;619;51.472;6.628;2023-02-03T11:02:10;8.23;;;2.77;;
1258;SDS011;619;51.472;6.628;2023-02-03T11:07:41;3.60;;;2.90;;
1258;SDS011;619;51.472;6.628;2023-02-03T11:13:11;4.03;;;3.00;;
1258;SDS011;619;51.472;6.628;2023-02-03T11:15:37;5.20;;;2.73;;
1258;SDS011;619;51.472;6.628;2023-02-03T11:18:54;4.27;;;2.60;;
1258;SDS011;619;51.472;6.628;2023-02-03T11:20:54;6.03;;;2.60;;
1258;SDS011;619;51.472;6.628;2023-02-03T11:23:24;7.23;;;3.73;;
1258;SDS011;619;51.472;6.628;2023-02-03T11:25:52;4.93;;;3.20;;
1258;SDS011;619;51.472;6.628;2023-02-03T11:28:18;5.97;;;3.10;;
1258;SDS011;619;51.472;6.628;2023-02-03T11:30:45;7.70;;;3.80;;
1258;SDS011;619;51.472;6.628;2023-02-03T11:33:19;3.60;;;2.97;;
1258;SDS011;619;51.472;6.628;2023-02-03T11:35:55;8.10;;;2.90;;
1258;SDS011;619;51.472;6.628;2023-02-03T11:38:32;11.87;;;6.20;;
1258;SDS011;619;51.472;6.628;2023-02-03T11:41:03;5.77;;;2.73;;
1258;SDS011;619;51.472;6.628;2023-02-03T11:43:29;13.80;;;3.40;;
1258;SDS011;619;51.472;6.628;2023-02-03T11:46:02;6.73;;;3.73;;
1258;SDS011;619;51.472;6.628;2023-02-03T11:48:34;6.73;;;3.33;;
1258;SDS011;619;51.472;6.628;2023-02-03T12:09:09;6.93;;;3.80;;
1258;SDS011;619;51.472;6.628;2023-02-03T12:12:26;10.17;;;4.23;;
1258;SDS011;619;51.472;6.628;2023-02-03T12:22:12;7.07;;;3.40;;
1258;SDS011;619;51.472;6.628;2023-02-03T12:30:08;8.33;;;4.43;;
1258;SDS011;619;51.472;6.628;2023-02-03T12:32:39;6.93;;;3.80;;
1258;SDS011;619;51.472;6.628;2023-02-03T12:40:26;12.10;;;4.40;;
1258;SDS011;619;51.472;6.628;2023-02-03T12:43:03;11.63;;;3.97;;
1258;SDS011;619;51.472;6.628;2023-02-03T12:45:31;7.40;;;3.33;;
1258;SDS011;619;51.472;6.628;2023-02-03T12:55:39;4.83;;;3.17;;
1258;SDS011;619;51.472;6.628;2023-02-03T13:00:44;7.50;;;3.80;;
1258;SDS011;619;51.472;6.628;2023-02-03T13:03:12;8.90;;;3.87;;
1258;SDS011;619;51.472;6.628;2023-02-03T13:08:36;7.03;;;3.90;;
1258;SDS011;619;51.472;6.628;2023-02-03T13:11:12;7.10;;;4.60;;
1258;SDS011;619;51.472;6.628;2023-02-03T13:13:53;7.67;;;4.27;;
1258;SDS011;619;51.472;6.628;2023-02-03T13:16:27;5.63;;;3.83;;
1258;SDS011;619;51.472;6.628;2023-02-03T13:18:59;7.10;;;3.77;;
1258;SDS011;619;51.472;6.628;2023-02-03T13:21:29;8.40;;;3.50;;
1258;SDS011;619;51.472;6.628;2023-02-03T13:23:55;5.60;;;2.63;;
1258;SDS011;619;51.472;6.628;2023-02-03T13:42:15;6.23;;;2.90;;
1258;SDS011;619;51.472;6.628;2023-02-03T13:44:44;6.50;;;3.20;;
1258;SDS011;619;51.472;6.628;2023-02-03T13:47:14;5.77;;;2.73;;
1258;SDS011;619;51.472;6.628;2023-02-03T13:49:45;6.20;;;3.30;;
1258;SDS011;619;51.472;6.628;2023-02-03T13:52:23;6.13;;;3.63;;
1258;SDS011;619;51.472;6.628;2023-02-03T13:54:50;6.97;;;2.20;;
1258;SDS011;619;51.472;6.628;2023-02-03T13:57:23;7.40;;;4.93;;
1258;SDS011;619;51.472;6.628;2023-02-03T13:59:52;5.93;;;3.10;;
1258;SDS011;619;51.472;6.628;2023-02-03T14:07:32;7.73;;;3.53;;
1258;SDS011;619;51.472;6.628;2023-02-03T14:25:20;4.03;;;2.57;;
1258;SDS011;619;51.472;6.628;2023-02-03T14:27:57;7.97;;;2.60;;
1258;SDS011;619;51.472;6.628;2023-02-03T14:30:24;4.10;;;2.50;;
1258;SDS011;619;51.472;6.628;2023-02-03T14:35:35;10.90;;;3.00;;
1258;SDS011;619;51.472;6.628;2023-02-03T14:38:04;6.40;;;2.77;;
1258;SDS011;619;51.472;6.628;2023-02-03T14:40:34;6.37;;;3.13;;
1258;SDS011;619;51.472;6.628;2023-02-03T14:43:10;8.33;;;3.63;;
1258;SDS011;619;51.472;6.628;2023-02-03T14:50:43;10.43;;;3.33;;
1258;SDS011;619;51.472;6.628;2023-02-03T14:53:19;9.50;;;3.27;;
1258;SDS011;619;51.472;6.628;2023-02-03T14:56:01;10.33;;;3.30;;
1258;SDS011;619;51.472;6.628;2023-02-03T14:58:35;12.63;;;4.83;;
1258;SDS011;619;51.472;6.628;2023-02-03T15:01:05;10.27;;;4.00;;
1258;SDS011;619;51.472;6.628;2023-02-03T15:03:32;10.63;;;4.00;;
1258;SDS011;619;51.472;6.628;2023-02-03T15:06:02;13.40;;;6.93;;
1258;SDS011;619;51.472;6.628;2023-02-03T15:10:59;9.20;;;3.40;;
1258;SDS011;619;51.472;6.628;2023-02-03T15:13:26;11.90;;;4.33;;
1258;SDS011;619;51.472;6.628;2023-02-03T15:15:55;11.37;;;4.47;;
1258;SDS011;619;51.472;6.628;2023-02-03T15:18:29;8.00;;;3.77;;
1258;SDS011;619;51.472;6.628;2023-02-03T15:20:57;8.20;;;4.20;;
1258;SDS011;619;51.472;6.628;2023-02-03T15:23:24;7.80;;;4.30;;
1258;SDS011;619;51.472;6.628;2023-02-03T15:25:54;12.10;;;5.63;;
1258;SDS011;619;51.472;6.628;2023-02-03T15:28:23;8.10;;;4.10;;
1258;SDS011;619;51.472;6.628;2023-02-03T15:30:51;9.13;;;4.37;;
1258;SDS011;619;51.472;6.628;2023-02-03T15:33:18;11.60;;;5.50;;
1258;SDS011;619;51.472;6.628;2023-02-03T15:35:47;11.13;;;4.63;;
1258;SDS011;619;51.472;6.628;2023-02-03T15:38:14;7.83;;;3.90;;
1258;SDS011;619;51.472;6.628;2023-02-03T15:40:50;10.50;;;3.50;;
1258;SDS011;619;51.472;6.628;2023-02-03T15:43:18;6.73;;;3.70;;
1258;SDS011;619;51.472;6.628;2023-02-03T15:48:19;8.77;;;3.77;;
1258;SDS011;619;51.472;6.628;2023-02-03T15:51:00;9.20;;;4.07;;
1258;SDS011;619;51.472;6.628;2023-02-03T15:53:42;13.43;;;4.43;;
1258;SDS011;619;51.472;6.628;2023-02-03T15:56:10;9.17;;;3.77;;
1258;SDS011;619;51.472;6.628;2023-02-03T15:58:39;13.67;;;3.90;;
1258;SDS011;619;51.472;6.628;2023-02-03T16:01:10;17.93;;;3.53;;
1258;SDS011;619;51.472;6.628;2023-02-03T16:03:39;14.77;;;3.43;;
1258;SDS011;619;51.472;6.628;2023-02-03T16:06:49;12.40;;;3.73;;
1258;SDS011;619;51.472;6.628;2023-02-03T16:09:00;15.60;;;4.63;;
1258;SDS011;619;51.472;6.628;2023-02-03T16:11:27;15.70;;;5.30;;
1258;SDS011;619;51.472;6.628;2023-02-03T16:13:54;14.17;;;3.77;;
1258;SDS011;619;51.472;6.628;2023-02-03T16:16:34;10.67;;;4.27;;
1258;SDS011;619;51.472;6.628;2023-02-03T16:19:02;19.80;;;5.43;;
1258;SDS011;619;51.472;6.628;2023-02-03T16:21:36;9.87;;;4.27;;
1258;SDS011;619;51.472;6.628;2023-02-03T16:26:54;14.40;;;4.30;;
1258;SDS011;619;51.472;6.628;2023-02-03T16:29:20;11.70;;;3.73;;
1258;SDS011;619;51.472;6.628;2023-02-03T16:32:14;10.43;;;5.00;;
1258;SDS011;619;51.472;6.628;2023-02-03T16:35:04;9.47;;;3.87;;
1258;SDS011;619;51.472;6.628;2023-02-03T16:37:54;21.33;;;4.90;;
1258;SDS011;619;51.472;6.628;2023-02-03T16:40:38;22.33;;;5.97;;
1258;SDS011;619;51.472;6.628;2023-02-03T16:43:25;9.20;;;4.17;;
1258;SDS011;619;51.472;6.628;2023-02-03T16:46:10;14.43;;;4.97;;
1258;SDS011;619;51.472;6.628;2023-02-03T16:48:55;16.83;;;3.87;;
1258;SDS011;619;51.472;6.628;2023-02-03T16:51:42;15.70;;;4.70;;
1258;SDS011;619;51.472;6.628;2023-02-03T16:54:09;13.77;;;7.10;;
1258;SDS011;619;51.472;6.628;2023-02-03T16:56:36;11.10;;;3.90;;
1258;SDS011;619;51.472;6.628;2023-02-03T16:59:02;11.53;;;5.03;;
1258;SDS011;619;51.472;6.628;2023-02-03T17:01:31;15.00;;;5.57;;
1258;SDS011;619;51.472;6.628;2023-02-03T17:03:59;11.30;;;4.10;;
1258;SDS011;619;51.472;6.628;2023-02-03T17:06:28;8.80;;;4.70;;
1258;SDS011;619;51.472;6.628;2023-02-03T17:08:54;13.10;;;4.10;;
1258;SDS011;619;51.472;6.628;2023-02-03T17:11:24;15.53;;;4.60;;
1258;SDS011;619;51.472;6.628;2023-02-03T17:13:50;12.40;;;4.57;;
1258;SDS011;619;51.472;6.628;2023-02-03T17:16:18;15.30;;;5.13;;
1258;SDS011;619;51.472;6.628;2023-02-03T17:18:44;9.70;;;5.13;;
1258;SDS011;619;51.472;6.628;2023-02-03T17:21:12;19.13;;;4.83;;
1258;SDS011;619;51.472;6.628;2023-02-03T17:23:38;12.50;;;5.17;;
1258;SDS011;619;51.472;6.628;2023-02-03T17:26:04;17.70;;;4.77;;
1258;SDS011;619;51.472;6.628;2023-02-03T17:28:31;13.67;;;4.50;;
1258;SDS011;619;51.472;6.628;2023-02-03T17:30:57;17.87;;;5.43;;
1258;SDS011;619;51.472;6.628;2023-02-03T17:33:27;16.80;;;5.43;;
1258;SDS011;619;51.472;6.628;2023-02-03T17:38:25;11.87;;;4.10;;
1258;SDS011;619;51.472;6.628;2023-02-03T17:40:51;16.33;;;5.00;;
1258;SDS011;619;51.472;6.628;2023-02-03T17:43:19;14.60;;;5.10;;
1258;SDS011;619;51.472;6.628;2023-02-03T17:45:47;11.83;;;4.87;;
1258;SDS011;619;51.472;6.628;2023-02-03T17:48:13;12.20;;;4.80;;
1258;SDS011;619;51.472;6.628;2023-02-03T17:50:39;12.77;;;4.50;;
1258;SDS011;619;51.472;6.628;2023-02-03T17:53:05;16.63;;;5.83;;
1258;SDS011;619;51.472;6.628;2023-02-03T17:55:34;18.03;;;5.90;;
1258;SDS011;619;51.472;6.628;2023-02-03T17:58:02;13.67;;;5.13;;
1258;SDS011;619;51.472;6.628;2023-02-03T18:00:28;14.97;;;7.20;;
1258;SDS011;619;51.472;6.628;2023-02-03T18:02:56;13.17;;;5.80;;
1258;SDS011;619;51.472;6.628;2023-02-03T18:05:22;17.20;;;7.00;;
1258;SDS011;619;51.472;6.628;2023-02-03T18:07:48;17.63;;;5.93;;
1258;SDS011;619;51.472;6.628;2023-02-03T18:10:14;17.23;;;8.53;;
1258;SDS011;619;51.472;6.628;2023-02-03T18:12:40;13.53;;;4.57;;
1258;SDS011;619;51.472;6.628;2023-02-03T18:15:09;12.80;;;5.07;;
1258;SDS011;619;51.472;6.628;2023-02-03T18:17:35;16.80;;;5.27;;
1258;SDS011;619;51.472;6.628;2023-02-03T18:20:01;14.60;;;6.33;;
1258;SDS011;619;51.472;6.628;2023-02-03T18:22:27;12.50;;;4.60;;
1258;SDS011;619;51.472;6.628;2023-02-03T18:24:57;11.77;;;4.30;;